createdAt,value
2022-10-03T00:01:44.333Z,99.90
2022-10-03T00:04:23.370Z,99.90
2022-10-03T00:07:03.694Z,99.90
2022-10-03T00:09:49.774Z,99.90
2022-10-03T00:12:36.575Z,99.90
2022-10-03T00:15:12.131Z,99.90
2022-10-03T00:17:49.821Z,99.90
2022-10-03T00:20:37.727Z,99.90
2022-10-03T00:23:14.859Z,99.90
2022-10-03T00:25:48.672Z,99.90
2022-10-03T00:28:28.599Z,99.90
2022-10-03T00:31:10.112Z,99.90
2022-10-03T00:33:50.993Z,99.90
2022-10-03T00:36:27.075Z,99.90
2022-10-03T00:39:32.595Z,99.90
2022-10-03T00:42:39.965Z,99.90
2022-10-03T00:45:49.658Z,99.90
2022-10-03T00:48:53.953Z,99.90
2022-10-03T00:51:34.804Z,99.90
2022-10-03T00:54:25.806Z,99.90
2022-10-03T00:57:08.132Z,99.90
2022-10-03T00:59:50.550Z,99.90
2022-10-03T01:02:29.387Z,99.90
2022-10-03T01:05:04.256Z,99.90
2022-10-03T01:07:53.334Z,99.90
2022-10-03T01:10:27.712Z,99.90
2022-10-03T01:13:13.976Z,99.90
2022-10-03T01:15:51.469Z,99.90
2022-10-03T01:18:29.935Z,99.90
2022-10-03T01:21:08.079Z,99.90
2022-10-03T01:24:03.263Z,99.90
2022-10-03T01:26:59.794Z,99.90
2022-10-03T01:29:57.226Z,99.90
2022-10-03T01:32:30.648Z,99.90
2022-10-03T01:35:07.690Z,99.90
2022-10-03T01:37:51.311Z,99.90
2022-10-03T01:40:27.143Z,99.90
2022-10-03T01:43:03.848Z,99.90
2022-10-03T01:45:47.566Z,99.90
2022-10-03T01:48:23.254Z,99.90
2022-10-03T01:51:01.452Z,99.90
2022-10-03T01:53:41.856Z,99.90
2022-10-03T01:56:16.324Z,99.90
2022-10-03T01:58:58.053Z,99.90
2022-10-03T02:01:35.773Z,99.90
2022-10-03T02:04:13.073Z,99.90
2022-10-03T02:06:51.327Z,99.90
2022-10-03T02:09:29.358Z,99.90
2022-10-03T02:12:08.524Z,99.90
2022-10-03T02:14:46.796Z,99.90
2022-10-03T02:17:30.607Z,99.90
2022-10-03T02:20:08.518Z,99.90
2022-10-03T02:22:43.576Z,99.90
2022-10-03T02:25:24.846Z,99.90
2022-10-03T02:28:30.524Z,99.90
2022-10-03T02:31:21.759Z,99.90
2022-10-03T02:34:15.940Z,99.90
2022-10-03T02:37:11.199Z,99.90
2022-10-03T02:40:20.761Z,99.90
2022-10-03T02:43:26.395Z,99.90
2022-10-03T02:46:26.092Z,99.90
2022-10-03T02:49:19.767Z,99.90
2022-10-03T02:52:05.537Z,99.90
2022-10-03T02:54:59.679Z,99.90
2022-10-03T02:58:11.122Z,99.90
2022-10-03T03:01:02.425Z,99.90
2022-10-03T03:03:54.629Z,99.90
2022-10-03T03:06:58.246Z,99.90
2022-10-03T03:09:47.563Z,99.90
2022-10-03T03:12:45.308Z,99.90
2022-10-03T03:15:41.854Z,99.90
2022-10-03T03:18:22.534Z,99.90
2022-10-03T03:21:03.016Z,99.90
2022-10-03T03:23:44.482Z,99.90
2022-10-03T03:26:35.524Z,99.90
2022-10-03T03:29:12.797Z,99.90
2022-10-03T03:31:47.718Z,99.90
2022-10-03T03:34:22.557Z,99.90
2022-10-03T03:36:59.507Z,99.90
2022-10-03T03:39:58.423Z,99.90
2022-10-03T03:42:48.041Z,99.90
2022-10-03T03:45:45.578Z,99.90
2022-10-03T03:48:39.679Z,99.90
2022-10-03T03:51:22.685Z,99.90
2022-10-03T03:54:23.222Z,99.90
2022-10-03T03:57:14.328Z,99.90
2022-10-03T04:00:03.197Z,99.90
2022-10-03T04:02:47.560Z,99.90
2022-10-03T04:05:27.797Z,99.90
2022-10-03T04:08:13.702Z,99.90
2022-10-03T04:10:54.295Z,99.90
2022-10-03T04:13:36.668Z,99.90
2022-10-03T04:16:39.549Z,99.90
2022-10-03T04:19:14.361Z,99.90
2022-10-03T04:21:59.539Z,99.90
2022-10-03T04:25:05.456Z,99.90
2022-10-03T04:28:00.769Z,99.90
2022-10-03T04:30:38.561Z,99.90
2022-10-03T04:33:21.756Z,99.90
2022-10-03T04:36:28.530Z,99.90
2022-10-03T04:39:05.736Z,99.90
2022-10-03T04:41:43.189Z,99.90
2022-10-03T04:44:29.387Z,99.90
2022-10-03T04:47:03.223Z,99.90
2022-10-03T04:49:35.875Z,99.90
2022-10-03T04:52:14.532Z,99.90
2022-10-03T04:54:50.919Z,99.90
2022-10-03T04:57:29.535Z,99.90
2022-10-03T05:00:08.788Z,99.90
2022-10-03T05:02:47.567Z,99.90
2022-10-03T05:05:43.183Z,99.90
2022-10-03T05:08:20.873Z,99.90
2022-10-03T05:11:08.960Z,99.90
2022-10-03T05:13:59.833Z,99.90
2022-10-03T05:16:39.229Z,99.90
2022-10-03T05:19:38.865Z,99.90
2022-10-03T05:22:15.533Z,99.90
2022-10-03T05:24:51.269Z,99.90
2022-10-03T05:27:26.144Z,99.90
2022-10-03T05:30:03.098Z,99.90
2022-10-03T05:32:38.569Z,99.90
2022-10-03T05:35:24.947Z,99.90
2022-10-03T05:38:19.129Z,99.90
2022-10-03T05:41:02.017Z,99.90
2022-10-03T05:43:45.546Z,99.90
2022-10-03T05:46:24.003Z,99.90
2022-10-03T05:49:03.948Z,99.90
2022-10-03T05:51:53.878Z,99.90
2022-10-03T05:54:54.965Z,99.90
2022-10-03T05:57:36.389Z,99.90
2022-10-03T06:00:11.520Z,99.90
2022-10-03T06:03:16.381Z,99.90
2022-10-03T06:06:07.961Z,99.90
2022-10-03T06:09:01.251Z,99.90
2022-10-03T06:12:00.861Z,99.90
2022-10-03T06:14:38.699Z,99.90
2022-10-03T06:17:32.888Z,99.90
2022-10-03T06:20:17.416Z,99.90
2022-10-03T06:23:12.995Z,99.90
2022-10-03T06:26:05.478Z,99.90
2022-10-03T06:29:18.110Z,99.90
2022-10-03T06:32:34.393Z,99.90
2022-10-03T06:35:43.223Z,99.90
2022-10-03T06:38:37.356Z,99.90
2022-10-03T06:41:47.913Z,99.90
2022-10-03T06:44:39.267Z,99.90
2022-10-03T06:47:27.008Z,99.90
2022-10-03T06:50:33.644Z,99.90
2022-10-03T06:53:35.704Z,99.90
2022-10-03T06:56:46.381Z,99.90
2022-10-03T07:00:01.358Z,99.90
2022-10-03T07:03:21.639Z,99.90
2022-10-03T07:06:22.407Z,99.90
2022-10-03T07:09:41.824Z,99.90
2022-10-03T07:12:36.154Z,99.90
2022-10-03T07:15:50.188Z,99.90
2022-10-03T07:18:54.624Z,99.90
2022-10-03T07:22:01.123Z,99.90
2022-10-03T07:24:53.364Z,99.90
2022-10-03T07:27:34.279Z,99.90
2022-10-03T07:30:17.377Z,99.90
2022-10-03T07:33:28.488Z,99.90
2022-10-03T07:36:41.293Z,99.90
2022-10-03T07:39:56.735Z,99.90
2022-10-03T07:43:01.771Z,99.90
2022-10-03T07:45:37.985Z,99.90
2022-10-03T07:48:35.592Z,99.90
2022-10-03T07:51:15.009Z,99.90
2022-10-03T07:54:24.442Z,99.90
2022-10-03T07:57:04.982Z,99.90
2022-10-03T08:00:18.409Z,99.90
2022-10-03T08:03:22.851Z,99.90
2022-10-03T08:06:23.570Z,99.90
2022-10-03T08:09:33.528Z,99.90
2022-10-03T08:12:34.383Z,99.90
2022-10-03T08:15:21.557Z,99.90
2022-10-03T08:18:37.532Z,99.90
2022-10-03T08:21:11.365Z,99.90
2022-10-03T08:24:12.583Z,99.90
2022-10-03T08:27:12.944Z,99.90
2022-10-03T08:30:14.051Z,99.90
2022-10-03T08:33:21.093Z,99.90
2022-10-03T08:36:37.486Z,99.90
2022-10-03T08:39:21.680Z,99.90
2022-10-03T08:42:31.227Z,99.90
2022-10-03T08:48:42.593Z,99.90
2022-10-03T08:51:47.735Z,99.90
2022-10-03T08:54:40.887Z,99.90
2022-10-03T08:57:34.227Z,99.90
2022-10-03T09:00:17.449Z,99.90
2022-10-03T09:03:35.267Z,99.90
2022-10-03T09:06:30.242Z,99.90
2022-10-03T09:09:23.704Z,99.90
2022-10-03T09:12:16.270Z,99.90
2022-10-03T09:15:12.548Z,99.90
2022-10-03T09:18:10.459Z,99.90
2022-10-03T09:21:12.155Z,99.90
2022-10-03T09:24:14.232Z,99.90
2022-10-03T09:27:12.402Z,99.90
2022-10-03T09:30:04.428Z,99.90
2022-10-03T09:32:55.369Z,99.90
2022-10-03T09:35:52.812Z,99.90
2022-10-03T09:38:56.570Z,99.90
2022-10-03T09:42:06.325Z,99.90
2022-10-03T09:45:15.035Z,99.90
2022-10-03T09:48:20.495Z,99.90
2022-10-03T09:51:22.177Z,99.90
2022-10-03T09:54:24.713Z,99.90
2022-10-03T09:57:40.352Z,99.90
2022-10-03T10:00:28.454Z,99.90
2022-10-03T10:03:32.842Z,99.90
2022-10-03T10:06:49.626Z,99.90
2022-10-03T10:09:53.569Z,99.90
2022-10-03T10:13:00.713Z,99.90
2022-10-03T10:16:08.442Z,99.90
2022-10-03T10:19:06.981Z,99.90
2022-10-03T10:21:57.590Z,99.90
2022-10-03T10:25:01.962Z,99.90
2022-10-03T10:28:14.742Z,99.90
2022-10-03T10:31:27.210Z,99.90
2022-10-03T10:34:32.434Z,99.90
2022-10-03T10:37:46.294Z,99.90
2022-10-03T10:40:44.480Z,99.90
2022-10-03T10:43:44.621Z,99.90
2022-10-03T10:46:49.560Z,99.90
2022-10-03T10:49:57.425Z,99.90
2022-10-03T10:53:15.628Z,95.60
2022-10-03T10:56:18.966Z,92.30
2022-10-03T10:59:23.472Z,92.50
2022-10-03T11:02:39.088Z,94.10
2022-10-03T11:05:43.856Z,96.50
2022-10-03T11:08:50.743Z,98.90
2022-10-03T11:12:02.575Z,99.90
2022-10-03T11:15:10.739Z,99.90
2022-10-03T11:18:02.411Z,99.90
2022-10-03T11:21:08.775Z,99.90
2022-10-03T11:24:07.320Z,96.60
2022-10-03T11:27:06.744Z,92.90
2022-10-03T11:30:19.417Z,90.10
2022-10-03T11:33:42.079Z,83.20
2022-10-03T11:36:45.813Z,81.20
2022-10-03T11:39:23.392Z,84.10
2022-10-03T11:41:57.243Z,86.70
2022-10-03T11:44:28.729Z,84.40
2022-10-03T11:47:33.000Z,86.60
2022-10-03T11:50:29.280Z,79.00
2022-10-03T11:53:17.943Z,75.00
2022-10-03T11:55:52.425Z,72.20
2022-10-03T11:58:32.248Z,67.80
2022-10-03T12:01:24.015Z,63.50
2022-10-03T12:04:00.593Z,63.90
2022-10-03T12:07:11.260Z,62.50
2022-10-03T12:09:55.436Z,65.00
2022-10-03T12:12:32.867Z,66.70
2022-10-03T12:15:06.945Z,69.80
2022-10-03T12:17:37.926Z,72.80
2022-10-03T12:20:16.848Z,76.10
2022-10-03T12:22:53.031Z,79.90
2022-10-03T12:25:24.191Z,83.10
2022-10-03T12:28:02.622Z,84.10
2022-10-03T12:30:47.160Z,86.40
2022-10-03T12:33:37.662Z,88.20
2022-10-03T12:36:13.779Z,89.50
2022-10-03T12:38:54.838Z,90.70
2022-10-03T12:41:56.971Z,91.50
2022-10-03T12:44:40.754Z,92.10
2022-10-03T12:47:43.946Z,92.90
2022-10-03T12:50:28.913Z,92.90
2022-10-03T12:53:21.117Z,93.80
2022-10-03T12:55:59.782Z,93.70
2022-10-03T12:58:36.226Z,94.70
2022-10-03T13:01:12.321Z,94.60
2022-10-03T13:03:52.001Z,92.50
2022-10-03T13:07:02.299Z,91.70
2022-10-03T13:09:51.554Z,91.40
2022-10-03T13:12:33.906Z,91.70
2022-10-03T13:15:41.409Z,91.60
2022-10-03T13:18:30.163Z,92.90
2022-10-03T13:21:26.674Z,92.50
2022-10-03T13:24:01.013Z,92.30
2022-10-03T13:26:43.154Z,90.20
2022-10-03T13:29:23.576Z,89.90
2022-10-03T13:32:17.371Z,88.20
2022-10-03T13:35:20.348Z,86.40
2022-10-03T13:38:16.575Z,81.40
2022-10-03T13:40:49.362Z,76.60
2022-10-03T13:43:22.005Z,75.90
2022-10-03T13:45:56.819Z,73.60
2022-10-03T13:48:28.034Z,72.80
2022-10-03T13:51:05.458Z,72.30
2022-10-03T13:53:53.488Z,71.80
2022-10-03T13:56:36.536Z,71.70
2022-10-03T13:59:14.186Z,69.30
2022-10-03T14:01:51.484Z,69.60
2022-10-03T14:04:37.532Z,69.70
2022-10-03T14:07:14.353Z,69.50
2022-10-03T14:10:09.654Z,69.80
2022-10-03T14:12:56.497Z,70.00
2022-10-03T14:15:47.210Z,71.70
2022-10-03T14:18:44.018Z,73.60
2022-10-03T14:21:48.859Z,76.50
2022-10-03T14:24:52.812Z,79.60
2022-10-03T14:27:41.887Z,80.90
2022-10-03T14:30:15.439Z,82.60
2022-10-03T14:32:53.353Z,83.40
2022-10-03T14:35:37.928Z,84.30
2022-10-03T14:38:21.314Z,85.80
2022-10-03T14:40:53.955Z,88.00
2022-10-03T14:43:34.831Z,89.00
2022-10-03T14:46:05.321Z,89.60
2022-10-03T14:48:38.780Z,90.00
2022-10-03T14:51:16.177Z,90.10
2022-10-03T14:53:52.197Z,90.70
2022-10-03T14:56:24.311Z,90.90
2022-10-03T14:58:54.889Z,91.00
2022-10-03T15:01:25.362Z,91.40
2022-10-03T15:04:01.623Z,91.80
2022-10-03T15:06:36.201Z,92.20
2022-10-03T15:09:10.164Z,92.40
2022-10-03T15:11:48.699Z,92.60
2022-10-03T15:14:17.140Z,92.40
2022-10-03T15:16:50.914Z,92.10
2022-10-03T15:19:22.916Z,92.80
2022-10-03T15:21:53.959Z,93.10
2022-10-03T15:24:26.114Z,93.20
2022-10-03T15:27:02.482Z,93.40
2022-10-03T15:29:32.246Z,94.10
2022-10-03T15:32:01.082Z,95.00
2022-10-03T15:34:33.675Z,96.90
2022-10-03T15:37:10.738Z,98.40
2022-10-03T15:39:42.937Z,99.00
2022-10-03T15:42:26.467Z,99.80
2022-10-03T15:44:57.887Z,99.90
2022-10-03T15:47:28.028Z,99.90
2022-10-03T15:50:00.991Z,99.90
2022-10-03T15:52:40.937Z,99.90
2022-10-03T15:55:16.474Z,99.90
2022-10-03T15:57:47.779Z,99.90
2022-10-03T16:00:24.625Z,99.90
2022-10-03T16:02:59.850Z,99.90
2022-10-03T16:05:28.438Z,99.40
2022-10-03T16:08:02.481Z,99.90
2022-10-03T16:10:36.617Z,99.90
2022-10-03T16:13:19.238Z,99.90
2022-10-03T16:16:10.911Z,99.90
2022-10-03T16:18:51.829Z,99.90
2022-10-03T16:21:33.505Z,99.90
2022-10-03T16:24:04.321Z,99.90
2022-10-03T16:26:36.767Z,99.90
2022-10-03T16:29:14.084Z,99.90
2022-10-03T16:31:54.783Z,99.90
2022-10-03T16:34:26.634Z,99.90
2022-10-03T16:36:55.529Z,99.90
2022-10-03T16:39:26.505Z,99.90
2022-10-03T16:41:56.193Z,99.90
2022-10-03T16:44:32.207Z,99.90
2022-10-03T16:47:04.292Z,99.90
2022-10-03T16:49:59.930Z,99.90
2022-10-03T16:52:34.501Z,99.90
2022-10-03T16:55:06.860Z,99.90
2022-10-03T16:57:44.090Z,99.90
2022-10-03T17:00:24.704Z,99.90
2022-10-03T17:02:55.200Z,99.90
2022-10-03T17:05:24.130Z,99.90
2022-10-03T17:07:55.032Z,99.90
2022-10-03T17:10:30.353Z,99.90
2022-10-03T17:13:03.539Z,99.90
2022-10-03T17:15:38.965Z,99.90
2022-10-03T17:18:24.706Z,99.90
2022-10-03T17:20:56.785Z,99.90
2022-10-03T17:23:31.866Z,99.90
2022-10-03T17:26:06.329Z,99.90
2022-10-03T17:28:45.509Z,99.90
2022-10-03T17:31:30.260Z,99.90
2022-10-03T17:34:09.465Z,99.90
2022-10-03T17:36:59.989Z,99.90
2022-10-03T17:39:42.880Z,99.90
2022-10-03T17:42:24.837Z,99.90
2022-10-03T17:45:00.639Z,99.90
2022-10-03T17:47:39.186Z,99.90
2022-10-03T17:50:14.543Z,99.90
2022-10-03T17:52:45.378Z,99.90
2022-10-03T17:55:19.476Z,99.90
2022-10-03T17:57:50.806Z,99.90
2022-10-03T18:00:21.772Z,99.90
2022-10-03T18:02:59.756Z,99.90
2022-10-03T18:05:30.701Z,99.90
2022-10-03T18:08:05.371Z,99.90
2022-10-03T18:10:37.630Z,99.90
2022-10-03T18:13:15.732Z,99.90
2022-10-03T18:16:11.270Z,99.90
2022-10-03T18:19:11.828Z,99.90
2022-10-03T18:22:09.348Z,99.90
2022-10-03T18:24:54.025Z,99.90
2022-10-03T18:27:54.338Z,99.90
2022-10-03T18:30:27.446Z,99.90
2022-10-03T18:33:01.375Z,99.90
2022-10-03T18:35:35.042Z,99.90
2022-10-03T18:38:15.117Z,99.90
2022-10-03T18:40:48.257Z,99.90
2022-10-03T18:43:29.848Z,99.90
2022-10-03T18:46:16.263Z,99.90
2022-10-03T18:49:15.768Z,99.90
2022-10-03T18:51:45.607Z,99.90
2022-10-03T18:54:27.507Z,99.90
2022-10-03T18:57:07.503Z,99.90
2022-10-03T18:59:48.379Z,99.90
2022-10-03T19:02:22.654Z,99.90
2022-10-03T19:04:54.603Z,99.90
2022-10-03T19:07:26.747Z,99.90
2022-10-03T19:10:24.189Z,99.90
2022-10-03T19:13:00.688Z,99.90
2022-10-03T19:15:47.854Z,99.90
2022-10-03T19:18:26.215Z,99.90
2022-10-03T19:20:56.877Z,99.90
2022-10-03T19:23:30.949Z,99.90
2022-10-03T19:26:02.915Z,99.90
2022-10-03T19:28:33.567Z,99.90
2022-10-03T19:31:07.463Z,99.90
2022-10-03T19:33:43.420Z,99.90
2022-10-03T19:36:16.559Z,99.90
2022-10-03T19:38:48.034Z,99.90
2022-10-03T19:41:27.189Z,99.90
2022-10-03T19:43:56.976Z,99.90
2022-10-03T19:46:51.782Z,99.90
2022-10-03T19:49:36.413Z,99.90
2022-10-03T19:52:15.360Z,99.90
2022-10-03T19:54:52.639Z,99.90
2022-10-03T19:57:24.919Z,99.90
2022-10-03T19:59:55.649Z,99.90
2022-10-03T20:02:25.642Z,99.90
2022-10-03T20:04:57.319Z,99.90
2022-10-03T20:07:44.664Z,99.90
2022-10-03T20:10:47.503Z,99.90
2022-10-03T20:13:16.193Z,99.90
2022-10-03T20:15:47.064Z,99.90
2022-10-03T20:18:22.496Z,99.90
2022-10-03T20:20:53.667Z,99.90
2022-10-03T20:23:24.761Z,99.90
2022-10-03T20:25:59.560Z,99.90
2022-10-03T20:28:44.095Z,99.90
2022-10-03T20:31:12.917Z,99.90
2022-10-03T20:33:41.042Z,99.90
2022-10-03T20:36:16.306Z,99.90
2022-10-03T20:39:03.014Z,99.90
2022-10-03T20:41:40.719Z,99.90
2022-10-03T20:44:16.084Z,99.90
2022-10-03T20:46:47.890Z,99.90
2022-10-03T20:49:27.546Z,99.90
2022-10-03T20:52:02.518Z,99.90
2022-10-03T20:54:36.475Z,99.90
2022-10-03T20:57:14.871Z,99.90
2022-10-03T20:59:47.348Z,99.90
2022-10-03T21:02:25.147Z,99.90
2022-10-03T21:04:58.071Z,99.90
2022-10-03T21:07:33.284Z,99.90
2022-10-03T21:10:09.533Z,99.90
2022-10-03T21:12:44.581Z,99.90
2022-10-03T21:15:16.056Z,99.90
2022-10-03T21:17:46.452Z,99.90
2022-10-03T21:20:19.802Z,99.90
2022-10-03T21:22:50.685Z,99.90
2022-10-03T21:25:22.337Z,99.90
2022-10-03T21:27:55.231Z,99.90
2022-10-03T21:30:35.676Z,99.90
2022-10-03T21:33:12.471Z,99.90
2022-10-03T21:35:42.996Z,99.90
2022-10-03T21:38:20.182Z,99.90
2022-10-03T21:41:14.418Z,99.90
2022-10-03T21:43:52.409Z,99.90
2022-10-03T21:46:33.117Z,99.90
2022-10-03T21:49:15.820Z,99.90
2022-10-03T21:52:01.238Z,99.90
2022-10-03T21:54:37.829Z,99.90
2022-10-03T21:57:15.319Z,99.90
2022-10-03T22:00:06.776Z,99.90
2022-10-03T22:02:44.579Z,99.90
2022-10-03T22:05:19.815Z,99.90
2022-10-03T22:07:47.813Z,99.90
2022-10-03T22:10:21.717Z,99.90
2022-10-03T22:12:52.631Z,99.90
2022-10-03T22:15:38.123Z,99.90
2022-10-03T22:18:11.420Z,99.90
2022-10-03T22:20:53.958Z,99.90
2022-10-03T22:23:33.557Z,99.90
2022-10-03T22:26:15.257Z,99.90
2022-10-03T22:28:52.878Z,99.90
2022-10-03T22:31:30.723Z,99.90
2022-10-03T22:34:14.868Z,99.90
2022-10-03T22:36:43.923Z,99.90
2022-10-03T22:39:15.496Z,99.90
2022-10-03T22:41:46.707Z,99.90
2022-10-03T22:44:17.258Z,99.90
2022-10-03T22:46:51.138Z,99.90
2022-10-03T22:49:22.332Z,99.90
2022-10-03T22:51:54.340Z,99.90
2022-10-03T22:54:24.214Z,99.90
2022-10-03T22:56:55.825Z,99.90
2022-10-03T22:59:27.080Z,99.90
2022-10-03T23:01:59.869Z,99.90
2022-10-03T23:04:33.463Z,99.90
2022-10-03T23:07:37.111Z,99.90
2022-10-03T23:10:17.284Z,99.90
2022-10-03T23:12:50.204Z,99.90
2022-10-03T23:15:20.964Z,99.90
2022-10-03T23:18:14.973Z,99.90
2022-10-03T23:21:01.375Z,99.90
2022-10-03T23:23:35.819Z,99.90
2022-10-03T23:26:43.801Z,99.90
2022-10-03T23:29:14.208Z,99.90
2022-10-03T23:32:01.304Z,99.90
2022-10-03T23:35:06.273Z,99.90
2022-10-03T23:37:46.050Z,99.90
2022-10-03T23:40:27.527Z,99.90
2022-10-03T23:43:06.487Z,99.90
2022-10-03T23:45:36.092Z,99.90
2022-10-03T23:48:10.119Z,99.90
2022-10-03T23:50:43.377Z,99.90
2022-10-03T23:53:21.408Z,99.90
2022-10-03T23:55:49.421Z,99.90
2022-10-03T23:58:25.620Z,99.90
